createdAt,value
2022-10-07T00:00:02.386Z,14.76
2022-10-07T00:01:11.027Z,14.75
2022-10-07T00:02:16.191Z,14.73
2022-10-07T00:03:31.991Z,14.71
2022-10-07T00:04:49.816Z,14.67
2022-10-07T00:06:22.315Z,14.65
2022-10-07T00:07:32.355Z,14.61
2022-10-07T00:08:45.919Z,14.60
2022-10-07T00:09:52.936Z,14.58
2022-10-07T00:11:15.792Z,14.55
2022-10-07T00:12:24.875Z,14.53
2022-10-07T00:13:39.692Z,14.47
2022-10-07T00:14:46.866Z,14.47
2022-10-07T00:15:53.896Z,14.44
2022-10-07T00:16:58.088Z,14.39
2022-10-07T00:18:06.054Z,14.39
2022-10-07T00:19:13.376Z,14.37
2022-10-07T00:20:43.117Z,14.34
2022-10-07T00:21:47.761Z,14.34
2022-10-07T00:22:55.777Z,14.32
2022-10-07T00:24:00.565Z,14.30
2022-10-07T00:25:10.600Z,14.29
2022-10-07T00:26:30.701Z,14.26
2022-10-07T00:27:34.579Z,14.25
2022-10-07T00:28:42.043Z,14.24
2022-10-07T00:29:46.439Z,14.21
2022-10-07T00:31:13.354Z,14.21
2022-10-07T00:32:22.261Z,14.18
2022-10-07T00:33:27.254Z,14.17
2022-10-07T00:34:32.337Z,14.16
2022-10-07T00:35:37.002Z,14.17
2022-10-07T00:36:49.575Z,14.18
2022-10-07T00:38:05.404Z,14.15
2022-10-07T00:39:14.911Z,14.13
2022-10-07T00:40:18.906Z,14.14
2022-10-07T00:41:31.072Z,14.12
2022-10-07T00:43:07.914Z,14.11
2022-10-07T00:44:45.906Z,14.06
2022-10-07T00:45:52.402Z,14.04
2022-10-07T00:47:01.448Z,14.04
2022-10-07T00:48:06.668Z,14.03
2022-10-07T00:49:14.594Z,13.99
2022-10-07T00:50:29.692Z,13.97
2022-10-07T00:51:54.608Z,13.96
2022-10-07T00:53:02.668Z,13.98
2022-10-07T00:54:17.344Z,13.96
2022-10-07T00:55:31.132Z,13.97
2022-10-07T00:56:44.164Z,13.97
2022-10-07T00:57:53.229Z,13.98
2022-10-07T00:59:01.007Z,13.96
2022-10-07T01:00:07.950Z,13.97
2022-10-07T01:01:13.237Z,13.95
2022-10-07T01:02:21.049Z,13.95
2022-10-07T01:03:25.494Z,13.94
2022-10-07T01:04:29.827Z,13.92
2022-10-07T01:05:33.781Z,13.90
2022-10-07T01:06:48.235Z,13.90
2022-10-07T01:07:54.940Z,13.88
2022-10-07T01:09:02.105Z,13.88
2022-10-07T01:10:08.816Z,13.88
2022-10-07T01:11:52.662Z,13.83
2022-10-07T01:13:17.651Z,13.84
2022-10-07T01:14:54.970Z,13.79
2022-10-07T01:18:39.433Z,13.73
2022-10-07T01:19:52.613Z,13.72
2022-10-07T01:21:12.076Z,13.74
2022-10-07T01:22:56.730Z,13.71
2022-10-07T01:24:52.241Z,13.70
2022-10-07T01:26:55.621Z,13.66
2022-10-07T01:28:14.377Z,13.65
2022-10-07T01:29:40.942Z,13.62
2022-10-07T01:31:06.322Z,13.61
2022-10-07T01:32:19.527Z,13.58
2022-10-07T01:33:33.439Z,13.58
2022-10-07T01:34:39.565Z,13.60
2022-10-07T01:35:49.936Z,13.58
2022-10-07T01:37:05.242Z,13.57
2022-10-07T01:38:14.056Z,13.56
2022-10-07T01:39:25.165Z,13.55
2022-10-07T01:40:45.220Z,13.54
2022-10-07T01:41:51.019Z,13.48
2022-10-07T01:42:56.445Z,13.47
2022-10-07T01:44:13.312Z,13.47
2022-10-07T01:45:30.875Z,13.43
2022-10-07T01:46:44.683Z,13.45
2022-10-07T01:47:53.010Z,13.45
2022-10-07T01:48:57.996Z,13.46
2022-10-07T01:50:01.742Z,13.42
2022-10-07T01:51:08.635Z,13.35
2022-10-07T01:52:34.778Z,13.28
2022-10-07T01:54:21.924Z,13.29
2022-10-07T01:56:02.773Z,13.26
2022-10-07T01:57:24.935Z,13.24
2022-10-07T07:18:36.791Z,16.77
2022-10-07T07:20:17.942Z,17.69
2022-10-07T07:21:58.772Z,18.44
2022-10-07T13:20:43.518Z,21.72
2022-10-07T14:11:33.679Z,22.06
2022-10-07T14:13:27.957Z,22.11
2022-10-07T14:20:04.725Z,22.06
2022-10-07T14:21:54.042Z,22.03
2022-10-07T19:54:48.115Z,16.48
2022-10-07T19:57:00.250Z,16.44
2022-10-07T19:58:41.046Z,16.42
2022-10-07T23:52:27.112Z,13.80
